Stourport-on-Severn, United Kingdom
Current Conditions -  °F | °C
As of 8:20 PM on Monday 24 Nov 2014 (Local Time) from EGBB Reporting Station
Light Fog Light Fog  
Wind Chill: 32°   Ceiling: Unl
Heat Index: 32°   Visibility: 6mi
Dew Point: 32°   Wind: 2mph
Humidity: 100%   Direction: 160°SSE
Pressure: 30.33"   Gusts: NA
Location:  52.33°N, 2.28°W
Report Text: EGBB 242020Z 16002KT 9999 BCFG NSC 00/M00 Q1027
Loading
Personal Weather Stations






























Interactive Weather Map New forecast layout! Learn more

10-Day Weather Forecast

Advertisements
Track Severe Weather on mobile